createdAt,value
2019-03-31T00:01:51.979Z,39.57
2019-03-31T00:04:22.773Z,39.78
2019-03-31T00:06:53.647Z,39.70
2019-03-31T00:09:24.574Z,39.55
2019-03-31T00:11:55.336Z,39.50
2019-03-31T00:14:26.181Z,39.39
2019-03-31T00:16:56.947Z,39.35
2019-03-31T00:19:27.752Z,39.38
2019-03-31T00:21:58.576Z,39.22
2019-03-31T00:24:29.314Z,39.46
2019-03-31T00:27:00.064Z,39.36
2019-03-31T00:29:30.867Z,39.12
2019-03-31T00:32:02.855Z,39.32
2019-03-31T00:34:33.635Z,39.30
2019-03-31T00:37:07.533Z,39.10
2019-03-31T00:39:36.897Z,39.04
2019-03-31T00:42:07.675Z,39.06
2019-03-31T00:44:38.455Z,38.97
2019-03-31T00:47:09.290Z,39.07
2019-03-31T00:49:40.022Z,38.92
2019-03-31T00:52:11.935Z,39.05
2019-03-31T00:54:42.672Z,38.95
2019-03-31T00:57:13.582Z,38.99
2019-03-31T00:59:44.351Z,38.95
2019-03-31T01:02:16.667Z,38.79
2019-03-31T01:04:48.892Z,38.80
2019-03-31T01:07:20.738Z,38.86
2019-03-31T01:09:51.591Z,38.84
2019-03-31T01:12:23.200Z,38.93
2019-03-31T01:14:54.053Z,38.74
2019-03-31T01:17:25.696Z,38.78
2019-03-31T01:19:57.747Z,38.75
2019-03-31T01:22:28.484Z,38.75
2019-03-31T01:24:59.463Z,38.79
2019-03-31T01:27:30.295Z,38.66
2019-03-31T01:30:01.116Z,38.68
2019-03-31T01:32:32.089Z,38.72
2019-03-31T01:35:04.188Z,38.69
2019-03-31T01:37:35.802Z,38.69
2019-03-31T01:40:06.909Z,38.74
2019-03-31T01:42:37.665Z,38.56
2019-03-31T01:45:08.539Z,38.65
2019-03-31T01:47:39.367Z,38.51
2019-03-31T01:50:11.100Z,38.47
2019-03-31T01:52:42.016Z,38.31
2019-03-31T01:55:13.767Z,37.78
2019-03-31T01:57:44.627Z,37.48
2019-03-31T02:00:28.286Z,37.28
2019-03-31T02:02:59.080Z,37.19
2019-03-31T02:05:29.901Z,37.00
2019-03-31T02:08:00.675Z,36.72
2019-03-31T02:10:31.520Z,36.36
2019-03-31T02:13:02.259Z,36.20
2019-03-31T02:15:33.037Z,35.98
2019-03-31T02:18:03.833Z,35.87
2019-03-31T02:20:34.665Z,35.68
2019-03-31T02:23:05.469Z,35.52
2019-03-31T02:25:36.266Z,35.34
2019-03-31T02:28:07.012Z,35.21
2019-03-31T02:30:37.793Z,35.05
2019-03-31T02:33:08.559Z,35.01
2019-03-31T02:35:39.320Z,34.95
2019-03-31T02:38:10.102Z,34.78
2019-03-31T02:40:40.824Z,34.73
2019-03-31T02:43:11.758Z,34.74
2019-03-31T02:45:42.537Z,34.63
2019-03-31T02:48:13.366Z,34.48
2019-03-31T02:50:48.881Z,34.33
2019-03-31T02:53:20.827Z,34.32
2019-03-31T02:55:51.607Z,34.18
2019-03-31T02:58:22.431Z,34.09
2019-03-31T03:00:53.241Z,34.11
2019-03-31T03:03:24.008Z,33.97
2019-03-31T03:05:54.764Z,33.83
2019-03-31T03:08:25.641Z,33.79
2019-03-31T03:10:56.400Z,33.77
2019-03-31T03:13:28.819Z,33.61
2019-03-31T03:16:27.603Z,33.62
2019-03-31T03:18:58.342Z,33.52
2019-03-31T03:21:29.130Z,33.60
2019-03-31T03:23:59.989Z,33.51
2019-03-31T03:26:30.831Z,33.49
2019-03-31T03:29:02.709Z,33.34
2019-03-31T03:31:33.532Z,33.31
2019-03-31T03:34:04.309Z,33.33
2019-03-31T03:36:35.098Z,33.23
2019-03-31T03:39:07.283Z,33.47
2019-03-31T03:41:38.071Z,33.95
2019-03-31T03:44:08.817Z,33.96
2019-03-31T03:46:39.642Z,33.91
2019-03-31T03:49:10.556Z,33.82
2019-03-31T03:51:41.620Z,33.86
2019-03-31T03:54:12.402Z,33.78
2019-03-31T03:56:43.222Z,33.68
2019-03-31T03:59:13.974Z,33.66
2019-03-31T04:01:44.807Z,33.64
2019-03-31T04:04:15.557Z,33.55
2019-03-31T04:06:46.394Z,33.52
2019-03-31T04:09:17.150Z,33.43
2019-03-31T04:11:47.957Z,33.44
2019-03-31T04:14:18.779Z,33.32
2019-03-31T04:16:49.522Z,33.36
2019-03-31T04:19:20.285Z,33.33
2019-03-31T04:21:51.110Z,33.30
2019-03-31T04:24:22.013Z,33.21
2019-03-31T04:26:52.765Z,33.21
2019-03-31T04:29:23.572Z,33.18
2019-03-31T04:31:54.332Z,33.14
2019-03-31T04:34:25.157Z,33.09
2019-03-31T04:36:55.955Z,33.06
2019-03-31T04:39:26.826Z,33.00
2019-03-31T04:41:57.947Z,32.99
2019-03-31T04:44:28.740Z,32.91
2019-03-31T04:46:59.616Z,32.89
2019-03-31T04:49:30.455Z,32.84
2019-03-31T04:52:01.283Z,32.82
2019-03-31T04:54:32.071Z,32.74
2019-03-31T04:57:04.549Z,32.77
2019-03-31T04:59:35.520Z,32.67
2019-03-31T05:02:06.337Z,32.71
2019-03-31T05:04:37.213Z,32.63
2019-03-31T05:07:08.020Z,32.70
2019-03-31T05:09:38.830Z,32.65
2019-03-31T05:12:09.567Z,32.64
2019-03-31T05:14:40.423Z,32.62
2019-03-31T05:17:11.190Z,32.63
2019-03-31T05:19:42.033Z,32.61
2019-03-31T05:22:12.764Z,32.57
2019-03-31T05:24:43.519Z,32.60
2019-03-31T05:27:14.254Z,32.47
2019-03-31T05:29:45.017Z,32.52
2019-03-31T05:32:15.886Z,32.49
2019-03-31T05:34:46.712Z,32.46
2019-03-31T05:37:17.489Z,32.42
2019-03-31T05:39:48.324Z,32.41
2019-03-31T05:42:19.130Z,32.46
2019-03-31T05:44:49.845Z,32.50
2019-03-31T05:47:20.743Z,32.40
2019-03-31T05:49:51.514Z,32.39
2019-03-31T05:52:22.338Z,32.40
2019-03-31T05:54:53.116Z,32.43
2019-03-31T05:57:23.897Z,32.65
2019-03-31T05:59:54.747Z,32.89
2019-03-31T06:02:25.548Z,32.55
2019-03-31T06:04:56.327Z,32.71
2019-03-31T06:07:27.191Z,33.00
2019-03-31T06:09:57.970Z,33.11
2019-03-31T06:12:28.842Z,33.11
2019-03-31T06:14:59.567Z,33.21
2019-03-31T06:17:30.361Z,33.30
2019-03-31T06:20:01.171Z,33.30
2019-03-31T06:22:32.035Z,33.56
2019-03-31T06:25:02.895Z,33.84
2019-03-31T06:27:33.691Z,34.02
2019-03-31T06:30:06.173Z,34.18
2019-03-31T06:32:36.976Z,34.28
2019-03-31T06:35:07.767Z,34.55
2019-03-31T06:37:38.518Z,34.71
2019-03-31T06:40:10.364Z,34.81
2019-03-31T06:42:41.156Z,34.88
2019-03-31T06:45:11.939Z,34.40
2019-03-31T06:47:42.798Z,33.67
2019-03-31T06:50:13.728Z,32.89
2019-03-31T06:52:45.538Z,32.37
2019-03-31T06:55:16.687Z,31.88
2019-03-31T06:57:47.517Z,31.73
2019-03-31T07:00:18.363Z,31.87
2019-03-31T07:02:49.235Z,33.03
2019-03-31T07:05:20.000Z,33.17
2019-03-31T07:07:50.892Z,32.94
2019-03-31T07:10:21.756Z,33.02
2019-03-31T07:12:52.526Z,32.89
2019-03-31T07:15:23.737Z,33.27
2019-03-31T07:17:54.545Z,33.54
2019-03-31T07:20:25.337Z,33.59
2019-03-31T07:23:04.957Z,33.82
2019-03-31T07:25:38.036Z,33.80
2019-03-31T07:28:08.816Z,33.99
2019-03-31T07:30:39.611Z,34.04
2019-03-31T07:33:10.515Z,34.00
2019-03-31T07:35:41.345Z,34.07
2019-03-31T07:38:12.140Z,34.16
2019-03-31T07:40:43.200Z,34.14
2019-03-31T07:43:14.104Z,34.19
2019-03-31T07:45:44.978Z,34.18
2019-03-31T07:48:15.832Z,34.22
2019-03-31T07:50:48.459Z,34.26
2019-03-31T07:53:19.225Z,34.33
2019-03-31T07:55:50.031Z,34.32
2019-03-31T07:58:20.937Z,34.35
2019-03-31T08:00:51.983Z,34.38
2019-03-31T08:03:24.370Z,34.41
2019-03-31T08:05:55.164Z,34.59
2019-03-31T08:08:27.000Z,34.59
2019-03-31T08:10:57.950Z,34.64
2019-03-31T08:13:28.734Z,34.63
2019-03-31T08:16:01.809Z,34.76
2019-03-31T08:18:32.708Z,34.84
2019-03-31T08:21:03.447Z,35.04
2019-03-31T08:23:34.249Z,34.98
2019-03-31T08:26:05.147Z,35.21
2019-03-31T08:28:36.095Z,35.30
2019-03-31T08:31:07.936Z,35.50
2019-03-31T08:33:39.001Z,35.64
2019-03-31T08:36:09.813Z,35.63
2019-03-31T08:38:41.671Z,35.52
2019-03-31T08:41:12.522Z,35.49
2019-03-31T08:43:43.422Z,35.51
2019-03-31T08:46:14.184Z,35.44
2019-03-31T08:48:44.989Z,35.50
2019-03-31T08:51:16.106Z,35.73
2019-03-31T08:53:46.886Z,35.74
2019-03-31T08:56:17.746Z,35.77
2019-03-31T08:58:49.029Z,35.85
2019-03-31T09:01:20.193Z,35.83
2019-03-31T09:03:51.000Z,35.91
2019-03-31T09:06:21.779Z,35.69
2019-03-31T09:08:52.609Z,35.45
2019-03-31T09:11:23.391Z,35.47
2019-03-31T09:13:54.185Z,35.21
2019-03-31T09:16:25.645Z,35.15
2019-03-31T09:18:56.403Z,35.32
2019-03-31T09:21:27.205Z,35.36
2019-03-31T09:23:57.960Z,35.53
2019-03-31T09:26:29.362Z,35.52
2019-03-31T09:29:00.104Z,35.67
2019-03-31T09:31:31.408Z,35.73
2019-03-31T09:34:05.245Z,35.71
2019-03-31T09:36:36.011Z,35.67
2019-03-31T09:39:07.562Z,35.84
2019-03-31T09:41:38.360Z,35.78
2019-03-31T09:44:09.151Z,35.84
2019-03-31T09:46:39.979Z,35.78
2019-03-31T09:49:10.762Z,35.80
2019-03-31T09:51:41.561Z,35.85
2019-03-31T09:54:12.617Z,35.95
2019-03-31T09:56:43.619Z,36.06
2019-03-31T09:59:14.389Z,36.48
2019-03-31T10:01:45.255Z,36.91
2019-03-31T10:04:16.045Z,37.42
2019-03-31T10:06:46.863Z,37.44
2019-03-31T10:09:17.705Z,37.43
2019-03-31T10:11:48.477Z,37.34
2019-03-31T10:14:19.526Z,37.39
2019-03-31T10:16:50.275Z,37.41
2019-03-31T10:19:21.148Z,37.36
2019-03-31T10:21:51.906Z,37.47
2019-03-31T10:24:22.827Z,37.49
2019-03-31T10:26:54.664Z,37.39
2019-03-31T10:29:26.239Z,37.38
2019-03-31T10:31:56.991Z,37.31
2019-03-31T10:34:27.881Z,37.45
2019-03-31T10:36:58.691Z,37.39
2019-03-31T10:39:29.428Z,37.44
2019-03-31T10:42:00.267Z,37.29
2019-03-31T10:44:31.047Z,37.34
2019-03-31T10:47:01.913Z,37.27
2019-03-31T10:49:32.755Z,37.28
2019-03-31T10:52:03.588Z,37.30
2019-03-31T10:54:37.637Z,37.34
2019-03-31T10:57:08.398Z,37.39
2019-03-31T10:59:39.217Z,37.17
2019-03-31T11:02:10.000Z,34.61
2019-03-31T11:07:37.271Z,34.35
2019-03-31T11:10:08.115Z,33.92
2019-03-31T11:12:38.963Z,34.03
2019-03-31T11:15:09.780Z,33.64
2019-03-31T11:17:40.570Z,33.67
2019-03-31T11:20:11.552Z,32.88
2019-03-31T11:23:01.265Z,33.18
2019-03-31T11:25:32.413Z,33.28
2019-03-31T11:28:03.257Z,33.10
2019-03-31T11:30:34.096Z,33.07
2019-03-31T11:33:07.465Z,32.53
2019-03-31T11:35:37.469Z,32.49
2019-03-31T11:38:08.259Z,32.25
2019-03-31T11:40:39.059Z,32.28
2019-03-31T11:43:09.922Z,32.23
2019-03-31T11:45:40.722Z,31.91
2019-03-31T11:48:11.566Z,31.75
2019-03-31T11:50:42.366Z,31.55
2019-03-31T11:53:13.149Z,31.92
2019-03-31T11:55:44.149Z,31.89
2019-03-31T11:58:14.986Z,32.21
2019-03-31T12:00:54.921Z,31.96
2019-03-31T12:03:25.754Z,31.90
2019-03-31T12:05:56.662Z,32.16
2019-03-31T12:08:27.519Z,31.90
2019-03-31T12:10:59.933Z,31.72
2019-03-31T12:13:30.819Z,31.95
2019-03-31T12:16:01.665Z,32.33
2019-03-31T12:18:34.695Z,32.12
2019-03-31T12:21:05.924Z,32.31
2019-03-31T12:23:36.755Z,32.52
2019-03-31T12:26:08.067Z,32.21
2019-03-31T12:28:38.930Z,32.55
2019-03-31T12:31:09.778Z,32.83
2019-03-31T12:33:41.984Z,33.42
2019-03-31T12:36:13.119Z,33.70
2019-03-31T12:38:44.018Z,33.96
2019-03-31T12:41:14.920Z,34.36
2019-03-31T12:43:45.830Z,34.12
2019-03-31T12:46:16.753Z,33.72
2019-03-31T12:48:47.607Z,34.21
2019-03-31T12:51:18.433Z,34.36
2019-03-31T12:53:51.119Z,34.62
2019-03-31T12:56:21.920Z,34.75
2019-03-31T12:58:52.760Z,34.89
2019-03-31T13:01:23.513Z,35.05
2019-03-31T13:03:54.403Z,35.13
2019-03-31T13:06:25.261Z,35.32
2019-03-31T13:08:56.154Z,35.39
2019-03-31T13:11:26.966Z,35.50
2019-03-31T13:13:57.797Z,35.60
2019-03-31T13:16:28.564Z,35.58
2019-03-31T13:18:59.368Z,35.69
2019-03-31T13:21:31.808Z,35.79
2019-03-31T13:24:02.608Z,35.81
2019-03-31T13:26:35.033Z,35.89
2019-03-31T13:29:05.951Z,36.02
2019-03-31T13:31:36.819Z,36.12
2019-03-31T13:34:07.615Z,36.18
2019-03-31T13:36:38.551Z,36.12
2019-03-31T13:39:10.496Z,36.21
2019-03-31T13:41:41.317Z,36.25
2019-03-31T13:44:12.131Z,36.36
2019-03-31T13:46:42.980Z,36.42
2019-03-31T13:49:13.829Z,36.45
2019-03-31T13:51:44.659Z,36.51
2019-03-31T13:54:15.520Z,36.61
2019-03-31T13:56:49.035Z,36.51
2019-03-31T13:59:18.901Z,36.64
2019-03-31T14:01:49.698Z,36.65
2019-03-31T14:04:20.584Z,36.70
2019-03-31T14:06:51.392Z,36.75
2019-03-31T14:09:23.717Z,36.81
2019-03-31T14:11:54.575Z,36.78
2019-03-31T14:14:25.412Z,36.81
2019-03-31T14:16:56.279Z,36.93
2019-03-31T14:19:27.083Z,36.90
2019-03-31T14:21:57.928Z,36.99
2019-03-31T14:24:28.722Z,36.97
2019-03-31T14:26:59.552Z,37.01
2019-03-31T14:29:30.407Z,37.01
2019-03-31T14:32:01.259Z,37.19
2019-03-31T14:34:32.131Z,37.07
2019-03-31T14:37:02.925Z,37.11
2019-03-31T14:39:33.874Z,37.21
2019-03-31T14:42:04.702Z,37.23
2019-03-31T14:44:35.533Z,37.30
2019-03-31T14:47:06.332Z,37.29
2019-03-31T14:49:37.258Z,37.32
2019-03-31T14:52:08.083Z,37.43
2019-03-31T14:54:38.928Z,37.32
2019-03-31T14:57:09.774Z,37.44
2019-03-31T14:59:40.502Z,37.44
2019-03-31T15:02:11.350Z,37.49
2019-03-31T15:04:42.190Z,37.53
2019-03-31T15:07:13.055Z,37.50
2019-03-31T15:09:43.902Z,37.60
2019-03-31T15:12:14.730Z,37.62
2019-03-31T15:14:45.556Z,37.62
2019-03-31T15:17:16.409Z,37.66
2019-03-31T15:19:47.232Z,37.77
2019-03-31T15:22:18.021Z,37.80
2019-03-31T15:24:48.758Z,37.84
2019-03-31T15:27:19.543Z,37.83
2019-03-31T15:29:50.510Z,37.87
2019-03-31T15:32:22.943Z,37.81
2019-03-31T15:34:53.812Z,37.86
2019-03-31T15:37:24.572Z,37.92
2019-03-31T15:39:55.697Z,37.88
2019-03-31T15:42:26.571Z,37.87
2019-03-31T15:44:57.369Z,38.06
2019-03-31T15:47:30.655Z,38.06
2019-03-31T15:50:01.472Z,38.02
2019-03-31T15:52:32.371Z,38.14
2019-03-31T15:55:05.272Z,38.12
2019-03-31T15:57:39.866Z,38.15
2019-03-31T16:00:10.799Z,38.18
2019-03-31T16:02:41.674Z,38.26
2019-03-31T16:05:12.986Z,38.22
2019-03-31T16:07:47.814Z,38.28
2019-03-31T16:10:18.162Z,38.32
2019-03-31T16:12:48.478Z,38.37
2019-03-31T16:15:19.323Z,38.28
2019-03-31T16:17:50.846Z,38.44
2019-03-31T16:20:21.488Z,38.43
2019-03-31T16:22:51.751Z,38.42
2019-03-31T16:25:27.390Z,38.41
2019-03-31T16:27:57.725Z,38.45
2019-03-31T16:30:28.477Z,38.40
2019-03-31T16:32:58.741Z,38.43
2019-03-31T16:35:28.987Z,38.22
2019-03-31T16:37:59.336Z,37.62
2019-03-31T16:40:29.607Z,36.19
2019-03-31T16:42:59.919Z,36.48
2019-03-31T16:45:31.877Z,36.47
2019-03-31T16:48:04.844Z,35.67
2019-03-31T16:50:35.130Z,35.94
2019-03-31T16:53:05.401Z,36.36
2019-03-31T17:00:33.639Z,36.65
2019-03-31T17:03:03.951Z,37.28
2019-03-31T17:08:03.383Z,37.51
2019-03-31T17:10:33.614Z,37.76
2019-03-31T17:15:33.031Z,37.78
2019-03-31T17:18:03.295Z,38.01
2019-03-31T17:20:34.015Z,38.14
2019-03-31T17:23:04.377Z,38.19
2019-03-31T17:25:34.824Z,38.20
2019-03-31T17:28:05.077Z,38.02
2019-03-31T17:30:36.863Z,38.08
2019-03-31T17:33:07.126Z,38.25
2019-03-31T17:35:37.458Z,38.27
2019-03-31T17:38:09.301Z,38.31
2019-03-31T17:40:39.991Z,38.43
2019-03-31T17:43:10.307Z,38.38
2019-03-31T17:45:40.600Z,38.40
2019-03-31T17:48:11.192Z,38.44
2019-03-31T17:50:41.537Z,38.55
2019-03-31T17:53:11.857Z,38.58
2019-03-31T17:55:42.206Z,38.72
2019-03-31T17:58:12.882Z,38.72
2019-03-31T18:00:43.589Z,38.74
2019-03-31T18:03:15.619Z,38.80
2019-03-31T18:05:46.830Z,38.77
2019-03-31T18:08:17.152Z,38.80
2019-03-31T18:10:47.448Z,38.65
2019-03-31T18:13:17.722Z,38.64
2019-03-31T18:15:48.037Z,38.72
2019-03-31T18:18:18.358Z,38.75
2019-03-31T18:20:48.907Z,38.75
2019-03-31T18:23:19.223Z,38.75
2019-03-31T18:25:49.661Z,38.59
2019-03-31T18:28:20.257Z,38.72
2019-03-31T18:30:50.533Z,38.66
2019-03-31T18:33:20.914Z,38.63
2019-03-31T18:35:51.313Z,38.74
2019-03-31T18:38:22.696Z,38.69
2019-03-31T18:40:53.022Z,38.51
2019-03-31T18:43:23.472Z,37.41
2019-03-31T18:45:55.847Z,37.19
2019-03-31T18:48:29.127Z,36.04
2019-03-31T18:51:00.567Z,36.04
2019-03-31T18:53:44.640Z,36.62
2019-03-31T18:56:36.319Z,36.32
2019-03-31T18:59:37.886Z,36.57
2019-03-31T19:02:21.115Z,36.84
2019-03-31T19:05:09.058Z,36.98
2019-03-31T19:10:54.267Z,36.85
2019-03-31T19:13:38.506Z,36.96
2019-03-31T19:16:26.310Z,36.91
2019-03-31T19:19:04.253Z,36.92
2019-03-31T19:21:56.318Z,36.98
2019-03-31T19:24:45.917Z,37.16
2019-03-31T19:27:37.608Z,37.28
2019-03-31T19:30:27.163Z,37.39
2019-03-31T19:33:07.446Z,36.31
2019-03-31T19:35:54.523Z,36.23
2019-03-31T19:38:40.247Z,36.74
2019-03-31T19:41:29.460Z,37.15
2019-03-31T19:44:07.636Z,37.21
2019-03-31T19:46:50.912Z,37.87
2019-03-31T19:49:42.887Z,38.37
2019-03-31T19:52:34.875Z,38.55
2019-03-31T19:55:13.334Z,38.83
2019-03-31T19:58:02.045Z,39.08
2019-03-31T20:03:31.200Z,39.42
2019-03-31T20:06:29.403Z,39.33
2019-03-31T20:09:21.346Z,39.65
2019-03-31T20:12:10.139Z,39.76
2019-03-31T20:14:57.658Z,39.83
2019-03-31T20:17:49.628Z,40.17
2019-03-31T20:20:30.035Z,40.29
2019-03-31T20:23:28.363Z,40.12
2019-03-31T20:26:20.331Z,40.33
2019-03-31T20:29:12.582Z,40.25
2019-03-31T20:31:55.010Z,40.38
2019-03-31T20:34:51.619Z,40.19
2019-03-31T20:37:40.874Z,40.06
2019-03-31T20:40:33.860Z,40.28
2019-03-31T20:43:16.686Z,40.11
2019-03-31T20:45:47.014Z,40.22
2019-03-31T20:48:17.325Z,40.26
2019-03-31T20:50:47.607Z,40.32
2019-03-31T20:53:17.931Z,40.24
2019-03-31T20:55:48.232Z,40.12
2019-03-31T20:58:19.610Z,40.04
2019-03-31T21:00:49.878Z,40.35
2019-03-31T21:03:20.807Z,40.25
2019-03-31T21:05:51.156Z,39.96
2019-03-31T21:08:23.021Z,40.14
2019-03-31T21:10:53.292Z,39.92
2019-03-31T21:13:23.648Z,40.16
2019-03-31T21:15:53.938Z,40.11
2019-03-31T21:18:24.232Z,40.21
2019-03-31T21:20:54.476Z,39.92
2019-03-31T21:23:24.769Z,39.94
2019-03-31T21:25:55.055Z,40.04
2019-03-31T21:28:25.364Z,39.95
2019-03-31T21:30:55.620Z,40.00
2019-03-31T21:33:26.006Z,39.95
2019-03-31T21:35:56.321Z,39.91
2019-03-31T21:38:26.632Z,39.96
2019-03-31T21:40:56.966Z,39.78
2019-03-31T21:43:27.293Z,40.02
2019-03-31T21:45:57.576Z,39.96
2019-03-31T21:48:27.882Z,39.99
2019-03-31T21:50:58.145Z,39.91
2019-03-31T21:53:28.375Z,39.95
2019-03-31T21:56:00.710Z,39.97
2019-03-31T21:58:31.064Z,39.83
2019-03-31T22:01:01.804Z,39.81
2019-03-31T22:03:32.482Z,39.91
2019-03-31T22:06:03.063Z,39.85
2019-03-31T22:08:36.162Z,39.85
2019-03-31T22:11:08.021Z,39.87
2019-03-31T22:13:38.367Z,39.91
2019-03-31T22:16:10.672Z,39.91
2019-03-31T22:18:41.015Z,39.91
2019-03-31T22:21:11.280Z,39.90
2019-03-31T22:23:41.634Z,39.90
2019-03-31T22:26:11.980Z,39.91
2019-03-31T22:28:42.341Z,39.85
2019-03-31T22:31:12.669Z,39.84
2019-03-31T22:33:42.928Z,39.94
2019-03-31T22:36:22.286Z,39.88
2019-03-31T22:38:53.270Z,39.91
2019-03-31T22:41:23.577Z,39.93
2019-03-31T22:43:53.872Z,39.87
2019-03-31T22:46:25.170Z,39.99
2019-03-31T22:48:55.424Z,39.89
2019-03-31T22:51:25.753Z,39.95
2019-03-31T22:53:56.244Z,40.00
2019-03-31T22:56:28.573Z,39.90
2019-03-31T22:58:58.860Z,39.92
2019-03-31T23:01:29.314Z,39.93
2019-03-31T23:03:59.537Z,39.91
2019-03-31T23:06:29.838Z,39.88
2019-03-31T23:09:00.257Z,39.87
2019-03-31T23:11:30.542Z,39.82
2019-03-31T23:14:00.928Z,39.83
2019-03-31T23:16:31.660Z,39.92
2019-03-31T23:19:01.983Z,39.95
2019-03-31T23:21:32.448Z,39.93
2019-03-31T23:24:02.756Z,39.86
2019-03-31T23:26:32.954Z,39.83
2019-03-31T23:29:03.372Z,39.81
2019-03-31T23:31:33.643Z,39.90
2019-03-31T23:34:04.001Z,39.92
2019-03-31T23:36:34.190Z,39.91
2019-03-31T23:39:06.147Z,39.84
2019-03-31T23:41:36.474Z,40.03
2019-03-31T23:44:06.838Z,40.06
2019-03-31T23:46:37.115Z,39.94
2019-03-31T23:49:07.431Z,39.92
2019-03-31T23:51:37.644Z,39.93
2019-03-31T23:54:07.906Z,39.98
2019-03-31T23:56:38.422Z,40.00
2019-03-31T23:59:08.781Z,39.95
